createdAt,value
2023-05-16T00:01:48.910Z,22.68
2023-05-16T00:04:18.777Z,22.67
2023-05-16T00:06:47.946Z,22.66
2023-05-16T00:09:24.226Z,22.65
2023-05-16T00:11:55.902Z,22.63
2023-05-16T00:14:26.346Z,22.62
2023-05-16T00:16:54.731Z,22.64
2023-05-16T00:19:26.349Z,22.61
2023-05-16T00:21:55.625Z,22.59
2023-05-16T00:24:26.234Z,22.58
2023-05-16T00:26:55.604Z,22.59
2023-05-16T00:29:25.254Z,22.59
2023-05-16T00:31:53.267Z,22.59
2023-05-16T00:34:23.093Z,22.59
2023-05-16T00:36:52.159Z,22.57
2023-05-16T00:39:21.387Z,22.59
2023-05-16T00:41:50.682Z,22.59
2023-05-16T00:44:20.012Z,22.58
2023-05-16T00:46:49.483Z,22.57
2023-05-16T00:49:17.641Z,22.57
2023-05-16T00:51:46.736Z,22.57
2023-05-16T00:54:16.232Z,22.56
2023-05-16T00:56:45.736Z,22.56
2023-05-16T00:59:16.810Z,22.54
2023-05-16T01:01:46.071Z,22.55
2023-05-16T01:04:15.793Z,22.55
2023-05-16T01:06:45.082Z,22.54
2023-05-16T01:09:14.116Z,22.54
2023-05-16T01:11:50.310Z,22.53
2023-05-16T01:14:24.259Z,22.52
2023-05-16T01:16:58.724Z,22.52
2023-05-16T01:19:33.879Z,22.53
2023-05-16T01:22:05.599Z,22.50
2023-05-16T01:24:35.980Z,22.50
2023-05-16T01:27:08.734Z,22.51
2023-05-16T01:29:36.824Z,22.50
2023-05-16T01:32:06.806Z,22.49
2023-05-16T01:34:36.662Z,22.50
2023-05-16T01:37:07.793Z,22.52
2023-05-16T01:39:39.234Z,22.53
2023-05-16T01:42:16.476Z,22.53
2023-05-16T01:44:46.848Z,22.53
2023-05-16T01:47:16.360Z,22.54
2023-05-16T01:49:50.873Z,22.49
2023-05-16T01:52:21.743Z,22.53
2023-05-16T01:54:49.899Z,22.54
2023-05-16T01:57:19.856Z,22.57
2023-05-16T01:59:47.891Z,22.57
2023-05-16T02:02:15.955Z,22.57
2023-05-16T02:04:43.999Z,22.58
2023-05-16T02:07:11.999Z,22.59
2023-05-16T02:09:39.915Z,22.58
2023-05-16T02:12:08.209Z,22.59
2023-05-16T02:14:40.270Z,22.59
2023-05-16T02:17:08.701Z,22.60
2023-05-16T02:19:36.756Z,22.60
2023-05-16T02:22:04.780Z,22.60
2023-05-16T02:24:32.729Z,22.61
2023-05-16T02:27:00.996Z,22.60
2023-05-16T02:29:29.057Z,22.60
2023-05-16T02:31:58.408Z,22.59
2023-05-16T02:34:26.399Z,22.58
2023-05-16T02:36:54.386Z,22.58
2023-05-16T02:39:22.377Z,22.57
2023-05-16T02:41:50.328Z,22.57
2023-05-16T02:44:21.336Z,22.54
2023-05-16T02:46:49.352Z,22.54
2023-05-16T02:49:18.968Z,22.55
2023-05-16T02:51:46.993Z,22.54
2023-05-16T02:54:14.967Z,22.54
2023-05-16T02:56:42.970Z,22.54
2023-05-16T02:59:11.055Z,22.55
2023-05-16T03:01:39.168Z,22.56
2023-05-16T03:04:07.275Z,22.54
2023-05-16T03:06:36.744Z,22.55
2023-05-16T03:09:06.108Z,22.55
2023-05-16T03:11:35.293Z,22.54
2023-05-16T03:14:04.349Z,22.54
2023-05-16T03:16:33.085Z,22.55
2023-05-16T03:19:01.150Z,22.54
2023-05-16T03:21:29.226Z,22.53
2023-05-16T03:23:58.620Z,22.53
2023-05-16T03:26:26.718Z,22.50
2023-05-16T03:28:54.694Z,22.51
2023-05-16T03:31:22.754Z,22.50
2023-05-16T03:33:50.888Z,22.48
2023-05-16T03:36:18.812Z,22.47
2023-05-16T03:38:46.782Z,22.45
2023-05-16T03:41:16.167Z,22.44
2023-05-16T03:43:44.112Z,22.44
2023-05-16T03:46:12.030Z,22.44
2023-05-16T03:48:39.984Z,22.43
2023-05-16T03:51:07.946Z,22.45
2023-05-16T03:53:35.883Z,22.44
2023-05-16T03:56:04.172Z,22.44
2023-05-16T03:58:33.561Z,22.46
2023-05-16T04:01:01.589Z,22.47
2023-05-16T04:03:30.398Z,22.48
2023-05-16T04:05:58.758Z,22.47
2023-05-16T04:08:27.007Z,22.50
2023-05-16T04:10:55.043Z,22.48
2023-05-16T04:13:23.146Z,22.49
2023-05-16T04:15:52.576Z,22.48
2023-05-16T04:18:20.608Z,22.49
2023-05-16T04:20:48.914Z,22.46
2023-05-16T04:23:16.828Z,22.47
2023-05-16T04:25:44.900Z,22.46
2023-05-16T04:28:12.866Z,22.46
2023-05-16T04:30:40.991Z,22.45
2023-05-16T04:33:10.377Z,22.44
2023-05-16T04:35:38.782Z,22.42
2023-05-16T04:38:06.847Z,22.42
2023-05-16T04:40:35.300Z,22.41
2023-05-16T04:43:03.224Z,22.40
2023-05-16T04:45:31.254Z,22.40
2023-05-16T04:47:59.294Z,22.39
2023-05-16T04:50:28.685Z,22.41
2023-05-16T04:52:56.717Z,22.39
2023-05-16T04:55:24.792Z,22.38
2023-05-16T04:57:52.940Z,22.42
2023-05-16T05:00:21.322Z,22.44
2023-05-16T05:02:49.331Z,22.44
2023-05-16T05:05:17.654Z,22.45
2023-05-16T05:07:47.172Z,22.45
2023-05-16T05:10:15.172Z,22.47
2023-05-16T05:12:43.122Z,22.47
2023-05-16T05:15:11.392Z,22.47
2023-05-16T05:17:39.463Z,22.46
2023-05-16T05:20:08.753Z,22.45
2023-05-16T05:22:36.731Z,22.43
2023-05-16T05:25:07.118Z,22.41
2023-05-16T05:27:35.191Z,22.42
2023-05-16T05:30:03.698Z,22.43
2023-05-16T05:32:32.293Z,22.41
2023-05-16T05:35:00.257Z,22.41
2023-05-16T05:37:28.766Z,22.42
2023-05-16T05:39:56.791Z,22.41
2023-05-16T05:44:53.886Z,22.40
2023-05-16T05:47:22.129Z,22.41
2023-05-16T05:49:50.276Z,22.38
2023-05-16T05:52:18.304Z,22.42
2023-05-16T05:54:46.877Z,22.41
2023-05-16T05:57:14.873Z,22.39
2023-05-16T05:59:44.295Z,22.41
2023-05-16T06:02:12.383Z,22.43
2023-05-16T06:04:42.723Z,22.43
2023-05-16T06:07:10.818Z,22.42
2023-05-16T06:09:38.832Z,22.44
2023-05-16T06:12:07.489Z,22.45
2023-05-16T06:14:36.892Z,22.45
2023-05-16T06:17:14.375Z,22.45
2023-05-16T06:19:43.702Z,22.44
2023-05-16T06:22:11.649Z,22.44
2023-05-16T06:24:41.971Z,22.43
2023-05-16T06:27:10.014Z,22.44
2023-05-16T06:29:38.087Z,22.41
2023-05-16T06:32:09.047Z,22.39
2023-05-16T06:34:37.903Z,22.38
2023-05-16T06:37:06.255Z,22.36
2023-05-16T06:39:34.703Z,22.36
2023-05-16T06:42:02.873Z,22.35
2023-05-16T06:44:30.894Z,22.36
2023-05-16T06:46:59.054Z,22.36
2023-05-16T06:49:29.620Z,22.36
2023-05-16T06:51:57.668Z,22.38
2023-05-16T06:54:25.830Z,22.36
2023-05-16T06:56:53.832Z,22.37
2023-05-16T06:59:26.842Z,22.38
2023-05-16T07:01:57.107Z,22.41
2023-05-16T07:04:25.509Z,22.42
2023-05-16T07:06:54.962Z,22.44
2023-05-16T07:09:23.120Z,22.45
2023-05-16T07:11:51.158Z,22.45
2023-05-16T07:14:19.257Z,22.48
2023-05-16T07:16:47.305Z,22.49
2023-05-16T07:19:15.372Z,22.49
2023-05-16T07:21:43.420Z,22.49
2023-05-16T07:24:12.841Z,22.50
2023-05-16T07:26:41.050Z,22.49
2023-05-16T07:29:09.062Z,22.50
2023-05-16T07:31:37.129Z,22.50
2023-05-16T07:34:05.199Z,22.49
2023-05-16T07:36:33.320Z,22.50
2023-05-16T07:39:01.370Z,22.52
2023-05-16T07:41:30.790Z,22.53
2023-05-16T07:43:58.794Z,22.54
2023-05-16T07:46:26.827Z,22.53
2023-05-16T07:48:54.871Z,22.54
2023-05-16T07:51:22.949Z,22.53
2023-05-16T07:53:51.790Z,22.54
2023-05-16T07:56:19.886Z,22.55
2023-05-16T07:58:50.500Z,22.55
2023-05-16T08:01:18.592Z,22.56
2023-05-16T08:03:46.663Z,22.58
2023-05-16T08:06:14.782Z,22.58
2023-05-16T08:08:43.099Z,22.60
2023-05-16T08:11:11.437Z,22.61
2023-05-16T08:13:39.688Z,22.61
2023-05-16T08:16:09.301Z,22.64
2023-05-16T08:18:37.396Z,22.61
2023-05-16T08:21:05.845Z,22.64
2023-05-16T08:23:33.849Z,22.64
2023-05-16T08:26:02.166Z,22.64
2023-05-16T08:28:30.318Z,22.64
2023-05-16T08:30:58.438Z,22.65
2023-05-16T08:33:27.814Z,22.64
2023-05-16T08:35:55.910Z,22.65
2023-05-16T08:38:23.878Z,22.66
2023-05-16T08:40:51.948Z,22.66
2023-05-16T08:43:19.956Z,22.66
2023-05-16T08:45:47.941Z,22.67
2023-05-16T08:48:16.010Z,22.66
2023-05-16T08:50:45.374Z,22.67
2023-05-16T08:53:13.779Z,22.69
2023-05-16T08:55:41.939Z,22.69
2023-05-16T08:58:10.067Z,22.70
2023-05-16T09:00:38.077Z,22.71
2023-05-16T09:03:06.231Z,22.71
2023-05-16T09:05:34.257Z,22.71
2023-05-16T09:08:03.713Z,22.71
2023-05-16T09:10:31.662Z,22.71
2023-05-16T09:12:59.822Z,22.72
2023-05-16T09:15:32.332Z,22.73
2023-05-16T09:18:01.729Z,22.72
2023-05-16T09:20:29.784Z,22.74
2023-05-16T09:22:58.595Z,22.74
2023-05-16T09:25:30.860Z,22.75
2023-05-16T09:28:01.542Z,22.76
2023-05-16T09:30:31.531Z,22.76
2023-05-16T09:33:00.217Z,22.76
2023-05-16T09:35:43.121Z,22.76
2023-05-16T09:38:15.482Z,22.78
2023-05-16T09:40:44.859Z,22.81
2023-05-16T09:43:12.779Z,22.81
2023-05-16T09:45:40.800Z,22.80
2023-05-16T09:48:10.307Z,22.80
2023-05-16T09:50:38.746Z,22.80
2023-05-16T09:53:06.978Z,22.81
2023-05-16T09:55:35.160Z,22.80
2023-05-16T09:58:04.680Z,22.81
2023-05-16T10:00:33.354Z,22.80
2023-05-16T10:03:05.455Z,22.80
2023-05-16T10:05:34.802Z,22.80
2023-05-16T10:08:03.781Z,22.79
2023-05-16T10:10:31.865Z,22.80
2023-05-16T10:13:01.550Z,22.81
2023-05-16T10:15:31.196Z,22.82
2023-05-16T10:18:00.202Z,22.83
2023-05-16T10:20:28.266Z,22.85
2023-05-16T10:22:57.033Z,22.84
2023-05-16T10:25:27.731Z,22.85
2023-05-16T10:27:56.017Z,22.86
2023-05-16T10:30:24.020Z,22.87
2023-05-16T10:32:53.472Z,22.86
2023-05-16T10:35:21.772Z,22.87
2023-05-16T10:37:50.090Z,22.89
2023-05-16T10:40:18.097Z,22.90
2023-05-16T10:42:47.427Z,22.91
2023-05-16T10:45:18.369Z,22.92
2023-05-16T10:47:54.429Z,22.92
2023-05-16T10:50:43.974Z,22.94
2023-05-16T10:53:20.589Z,22.96
2023-05-16T10:56:07.663Z,22.97
2023-05-16T10:58:45.453Z,22.96
2023-05-16T11:01:20.772Z,22.96
2023-05-16T11:04:08.777Z,22.98
2023-05-16T11:06:37.396Z,22.98
2023-05-16T11:09:10.372Z,22.97
2023-05-16T11:11:42.839Z,22.99
2023-05-16T11:14:12.078Z,23.01
2023-05-16T11:16:40.666Z,23.02
2023-05-16T11:19:10.336Z,23.03
2023-05-16T11:22:09.441Z,23.07
2023-05-16T11:24:38.289Z,23.08
2023-05-16T11:27:06.583Z,23.11
2023-05-16T11:29:35.143Z,23.12
2023-05-16T11:32:03.731Z,23.12
2023-05-16T11:34:33.361Z,23.14
2023-05-16T11:37:02.276Z,23.13
2023-05-16T11:39:31.815Z,23.13
2023-05-16T11:41:59.817Z,23.15
2023-05-16T11:44:27.926Z,23.15
2023-05-16T11:46:55.979Z,23.16
2023-05-16T11:49:24.020Z,23.16
2023-05-16T11:51:53.350Z,23.17
2023-05-16T11:54:21.356Z,23.18
2023-05-16T11:56:49.401Z,23.18
2023-05-16T11:59:17.976Z,23.18
2023-05-16T12:01:48.332Z,23.18
2023-05-16T12:04:17.052Z,23.19
2023-05-16T12:06:45.628Z,23.20
2023-05-16T12:09:17.617Z,23.22
2023-05-16T12:11:46.522Z,23.23
2023-05-16T12:14:14.562Z,23.28
2023-05-16T12:16:44.120Z,23.30
2023-05-16T12:19:12.236Z,23.32
2023-05-16T12:21:40.281Z,23.33
2023-05-16T12:24:11.110Z,23.36
2023-05-16T12:26:41.383Z,23.39
2023-05-16T12:29:11.365Z,23.40
2023-05-16T12:31:41.011Z,23.43
2023-05-16T12:34:19.096Z,23.45
2023-05-16T12:36:47.745Z,23.47
2023-05-16T12:39:16.410Z,23.51
2023-05-16T12:41:45.695Z,23.53
2023-05-16T12:44:16.839Z,23.56
2023-05-16T12:46:45.771Z,23.58
2023-05-16T12:49:14.586Z,23.60
2023-05-16T12:51:42.596Z,23.62
2023-05-16T12:54:11.761Z,23.63
2023-05-16T12:56:40.793Z,23.63
2023-05-16T12:59:10.254Z,23.66
2023-05-16T13:01:38.453Z,23.66
2023-05-16T13:04:06.787Z,23.68
2023-05-16T13:06:55.642Z,23.70
2023-05-16T13:09:23.513Z,23.78
2023-05-16T13:11:52.491Z,23.86
2023-05-16T13:14:23.003Z,23.90
2023-05-16T13:16:51.516Z,23.95
2023-05-16T13:19:19.718Z,23.96
2023-05-16T13:21:47.840Z,23.95
2023-05-16T13:24:15.904Z,23.97
2023-05-16T13:26:44.056Z,23.97
2023-05-16T13:29:12.398Z,23.98
2023-05-16T13:31:41.956Z,23.98
2023-05-16T13:34:10.003Z,23.97
2023-05-16T13:36:52.261Z,23.98
2023-05-16T13:39:21.852Z,23.97
2023-05-16T13:41:49.927Z,23.98
2023-05-16T13:44:18.184Z,23.97
2023-05-16T13:46:47.684Z,23.97
2023-05-16T13:49:15.686Z,23.98
2023-05-16T13:51:43.788Z,23.98
2023-05-16T13:54:11.820Z,23.96
2023-05-16T13:56:40.028Z,23.95
2023-05-16T13:59:09.713Z,23.94
2023-05-16T14:01:39.593Z,23.94
2023-05-16T14:04:09.149Z,23.93
2023-05-16T14:06:37.329Z,23.94
2023-05-16T14:09:06.451Z,23.92
2023-05-16T14:11:34.586Z,23.92
2023-05-16T14:14:02.543Z,23.92
2023-05-16T14:16:31.174Z,23.92
2023-05-16T14:18:59.351Z,23.92
2023-05-16T14:21:28.910Z,23.95
2023-05-16T14:23:56.872Z,23.95
2023-05-16T14:26:25.577Z,23.94
2023-05-16T14:28:53.709Z,23.95
2023-05-16T14:31:21.724Z,23.96
2023-05-16T14:33:49.799Z,23.97
2023-05-16T14:36:17.832Z,23.98
2023-05-16T14:38:49.184Z,24.00
2023-05-16T14:41:17.441Z,23.99
2023-05-16T14:43:45.614Z,24.00
2023-05-16T14:46:14.057Z,24.01
2023-05-16T14:48:42.127Z,24.00
2023-05-16T14:51:10.165Z,23.99
2023-05-16T14:53:38.157Z,23.98
2023-05-16T14:56:08.040Z,23.98
2023-05-16T14:58:36.145Z,23.98
2023-05-16T15:01:04.420Z,23.98
2023-05-16T15:03:43.226Z,23.98
2023-05-16T15:06:15.348Z,23.98
2023-05-16T15:08:43.668Z,23.98
2023-05-16T15:11:13.148Z,24.02
2023-05-16T15:13:41.236Z,24.05
2023-05-16T15:16:09.427Z,24.07
2023-05-16T15:18:37.506Z,24.07
2023-05-16T15:21:05.455Z,24.07
2023-05-16T15:23:34.566Z,24.05
2023-05-16T15:26:02.555Z,24.03
2023-05-16T15:28:31.980Z,24.03
2023-05-16T15:30:59.989Z,24.03
2023-05-16T15:33:28.050Z,24.03
2023-05-16T15:35:56.079Z,24.03
2023-05-16T15:38:24.131Z,24.02
2023-05-16T15:41:05.049Z,24.01
2023-05-16T15:43:42.096Z,24.02
2023-05-16T15:46:10.294Z,24.03
2023-05-16T15:48:38.808Z,24.03
2023-05-16T15:51:06.983Z,24.03
2023-05-16T15:53:34.953Z,24.06
2023-05-16T15:56:02.921Z,24.05
2023-05-16T15:58:30.950Z,24.07
2023-05-16T16:01:00.478Z,24.08
2023-05-16T16:03:28.886Z,24.07
2023-05-16T16:05:56.927Z,24.07
2023-05-16T16:08:25.388Z,24.08
2023-05-16T16:10:53.426Z,24.08
2023-05-16T16:13:24.280Z,24.07
2023-05-16T16:15:52.373Z,24.07
2023-05-16T16:18:21.840Z,24.05
2023-05-16T16:20:49.968Z,24.05
2023-05-16T16:23:17.964Z,24.03
2023-05-16T16:25:46.053Z,24.03
2023-05-16T16:28:14.050Z,24.03
2023-05-16T16:30:44.167Z,24.03
2023-05-16T16:33:12.116Z,24.02
2023-05-16T16:35:41.509Z,24.00
2023-05-16T16:38:09.529Z,23.99
2023-05-16T16:40:37.449Z,23.99
2023-05-16T16:43:06.580Z,23.98
2023-05-16T16:45:34.650Z,23.98
2023-05-16T16:48:02.744Z,23.97
2023-05-16T16:50:32.081Z,23.98
2023-05-16T16:53:04.266Z,23.97
2023-05-16T16:55:32.280Z,23.96
2023-05-16T16:58:00.278Z,23.96
2023-05-16T17:00:28.605Z,23.94
2023-05-16T17:02:56.901Z,23.94
2023-05-16T17:05:25.145Z,23.93
2023-05-16T17:07:56.395Z,23.93
2023-05-16T17:10:25.886Z,23.92
2023-05-16T17:12:54.796Z,23.92
2023-05-16T17:15:23.174Z,23.91
2023-05-16T17:17:51.759Z,23.89
2023-05-16T17:20:19.836Z,23.89
2023-05-16T17:22:48.706Z,23.88
2023-05-16T17:25:16.757Z,23.87
2023-05-16T17:27:46.171Z,23.86
2023-05-16T17:30:15.551Z,23.87
2023-05-16T17:32:44.998Z,23.85
2023-05-16T17:35:13.044Z,23.82
2023-05-16T17:37:41.512Z,23.82
2023-05-16T17:40:16.420Z,23.83
2023-05-16T17:42:46.014Z,23.84
2023-05-16T17:45:14.870Z,23.85
2023-05-16T17:47:42.957Z,23.86
2023-05-16T17:50:11.334Z,23.88
2023-05-16T17:52:40.272Z,23.88
2023-05-16T17:55:10.342Z,23.88
2023-05-16T17:57:38.293Z,23.88
2023-05-16T18:00:09.404Z,23.87
2023-05-16T18:02:38.692Z,23.87
2023-05-16T18:05:07.893Z,23.87
2023-05-16T18:07:35.965Z,23.86
2023-05-16T18:10:04.151Z,23.87
2023-05-16T18:12:32.328Z,23.85
2023-05-16T18:15:00.316Z,23.86
2023-05-16T18:17:29.744Z,23.86
2023-05-16T18:19:58.706Z,23.85
2023-05-16T18:22:28.738Z,23.84
2023-05-16T18:24:56.933Z,23.84
2023-05-16T18:27:24.958Z,23.83
2023-05-16T18:29:53.039Z,23.83
2023-05-16T18:32:21.890Z,23.81
2023-05-16T18:34:51.617Z,23.82
2023-05-16T18:37:19.649Z,23.81
2023-05-16T18:39:48.536Z,23.81
2023-05-16T18:42:17.276Z,23.81
2023-05-16T18:44:45.266Z,23.80
2023-05-16T18:47:15.792Z,23.79
2023-05-16T18:49:44.090Z,23.79
2023-05-16T18:52:13.485Z,23.79
2023-05-16T18:54:41.604Z,23.77
2023-05-16T18:57:09.683Z,23.77
2023-05-16T18:59:37.750Z,23.76
2023-05-16T19:02:06.084Z,23.76
2023-05-16T19:04:34.242Z,23.76
2023-05-16T19:07:04.818Z,23.75
2023-05-16T19:09:34.998Z,23.76
2023-05-16T19:12:02.944Z,23.76
2023-05-16T19:14:31.383Z,23.74
2023-05-16T19:16:59.470Z,23.75
2023-05-16T19:19:27.749Z,23.75
2023-05-16T19:21:56.314Z,23.74
2023-05-16T19:24:24.383Z,23.73
2023-05-16T19:26:54.334Z,23.73
2023-05-16T19:29:22.500Z,23.73
2023-05-16T19:31:50.658Z,23.74
2023-05-16T19:34:20.812Z,23.71
2023-05-16T19:36:48.997Z,23.70
2023-05-16T19:39:17.117Z,23.71
2023-05-16T19:41:47.669Z,23.70
2023-05-16T19:44:21.085Z,23.68
2023-05-16T19:46:49.112Z,23.69
2023-05-16T19:49:20.031Z,23.69
2023-05-16T19:51:48.361Z,23.67
2023-05-16T19:54:16.455Z,23.68
2023-05-16T19:56:44.423Z,23.67
2023-05-16T19:59:12.413Z,23.66
2023-05-16T20:01:44.533Z,23.66
2023-05-16T20:04:12.834Z,23.66
2023-05-16T20:06:41.288Z,23.66
2023-05-16T20:09:10.483Z,23.63
2023-05-16T20:11:38.513Z,23.63
2023-05-16T20:14:06.537Z,23.61
2023-05-16T20:16:34.876Z,23.60
2023-05-16T20:19:04.438Z,23.59
2023-05-16T20:21:32.667Z,23.57
2023-05-16T20:24:00.704Z,23.56
2023-05-16T20:26:28.716Z,23.56
2023-05-16T20:28:56.875Z,23.56
2023-05-16T20:31:24.924Z,23.54
2023-05-16T20:33:53.038Z,23.53
2023-05-16T20:36:22.645Z,23.54
2023-05-16T20:38:50.943Z,23.52
2023-05-16T20:41:18.992Z,23.50
2023-05-16T20:43:47.514Z,23.51
2023-05-16T20:46:15.703Z,23.49
2023-05-16T20:48:43.731Z,23.51
2023-05-16T20:51:11.765Z,23.48
2023-05-16T20:53:41.165Z,23.47
2023-05-16T20:56:09.112Z,23.48
2023-05-16T20:58:41.163Z,23.48
2023-05-16T21:01:09.334Z,23.48
2023-05-16T21:03:37.319Z,23.48
2023-05-16T21:06:06.194Z,23.47
2023-05-16T21:08:34.610Z,23.49
2023-05-16T21:11:04.060Z,23.48
2023-05-16T21:13:34.586Z,23.48
2023-05-16T21:16:02.762Z,23.47
2023-05-16T21:18:30.908Z,23.46
2023-05-16T21:20:59.004Z,23.46
2023-05-16T21:23:27.018Z,23.47
2023-05-16T21:25:55.026Z,23.45
2023-05-16T21:28:24.411Z,23.47
2023-05-16T21:30:52.438Z,23.45
2023-05-16T21:33:23.089Z,23.44
2023-05-16T21:35:52.566Z,23.44
2023-05-16T21:38:21.272Z,23.43
2023-05-16T21:40:49.333Z,23.43
2023-05-16T21:43:17.630Z,23.42
2023-05-16T21:45:49.865Z,23.42
2023-05-16T21:48:18.278Z,23.41
2023-05-16T21:50:46.526Z,23.41
2023-05-16T21:53:14.681Z,23.41
2023-05-16T21:55:42.583Z,23.40
2023-05-16T21:58:10.663Z,23.40
2023-05-16T22:00:38.666Z,23.40
2023-05-16T22:03:08.444Z,23.40
2023-05-16T22:05:36.609Z,23.38
2023-05-16T22:08:04.716Z,23.39
2023-05-16T22:10:32.750Z,23.36
2023-05-16T22:13:00.854Z,23.37
2023-05-16T22:15:29.116Z,23.35
2023-05-16T22:17:57.644Z,23.39
2023-05-16T22:20:27.947Z,23.38
2023-05-16T22:22:56.051Z,23.36
2023-05-16T22:25:24.148Z,23.36
2023-05-16T22:27:52.297Z,23.37
2023-05-16T22:30:20.395Z,23.36
2023-05-16T22:32:48.410Z,23.35
2023-05-16T22:35:16.574Z,23.36
2023-05-16T22:37:45.957Z,23.35
2023-05-16T22:40:13.900Z,23.35
2023-05-16T22:42:41.912Z,23.34
2023-05-16T22:45:10.493Z,23.35
2023-05-16T22:47:38.535Z,23.33
2023-05-16T22:50:07.300Z,23.33
2023-05-16T22:52:41.145Z,23.31
2023-05-16T22:55:11.191Z,23.32
2023-05-16T22:57:39.272Z,23.33
2023-05-16T23:00:09.154Z,23.30
2023-05-16T23:02:37.354Z,23.30
2023-05-16T23:05:06.069Z,23.29
2023-05-16T23:07:34.195Z,23.28
2023-05-16T23:10:04.097Z,23.27
2023-05-16T23:12:33.568Z,23.26
2023-05-16T23:15:01.573Z,23.27
2023-05-16T23:17:29.683Z,23.27
2023-05-16T23:19:57.864Z,23.27
2023-05-16T23:22:25.916Z,23.26
2023-05-16T23:24:54.398Z,23.26
2023-05-16T23:27:22.560Z,23.26
2023-05-16T23:29:52.057Z,23.26
2023-05-16T23:32:20.071Z,23.24
2023-05-16T23:34:48.185Z,23.25
2023-05-16T23:37:16.732Z,23.24
2023-05-16T23:39:44.756Z,23.24
2023-05-16T23:42:13.044Z,23.24
2023-05-16T23:44:41.985Z,23.21
2023-05-16T23:47:11.374Z,23.20
2023-05-16T23:49:39.283Z,23.19
2023-05-16T23:52:07.577Z,23.18
2023-05-16T23:54:35.942Z,23.18
2023-05-16T23:57:03.983Z,23.16
2023-05-16T23:59:31.977Z,23.14
